Time;durP1;ratioP1;P1;durP2;ratioP2;P2;SDS_P1;SDS_P2;PMS_P1;PMS_P2;Temp;Humidity;BMP_temperature;BMP_pressure;BME280_temperature;BME280_humidity;BME280_pressure;Samples;Min_cycle;Max_cycle;Signal;HPM_P1;HPM_P2
2022/09/07 00:00:14;;;;;;;1.85;1.00;;;;;;;;;;4998534;28;20034;-79
2022/09/07 00:02:40;;;;;;;2.03;0.95;;;;;;;;;;5005641;28;20026;-79
2022/09/07 00:05:06;;;;;;;1.23;1.08;;;;;;;;;;5006818;28;20026;-79
2022/09/07 00:07:32;;;;;;;2.53;1.23;;;;;;;;;;5002442;28;20049;-80
2022/09/07 00:09:58;;;;;;;2.08;1.20;;;;;;;;;;4996054;28;20453;-79
2022/09/07 00:12:24;;;;;;;1.20;1.05;;;;;;;;;;5007070;28;20038;-79
2022/09/07 00:14:50;;;;;;;1.67;0.93;;;;;;;;;;5008249;28;20034;-79
2022/09/07 00:17:16;;;;;;;1.33;0.90;;;;;;;;;;5008311;28;20038;-79
2022/09/07 00:19:42;;;;;;;2.20;0.80;;;;;;;;;;5007916;28;20036;-79
2022/09/07 00:22:07;;;;;;;1.63;1.08;;;;;;;;;;4998762;28;20037;-79
2022/09/07 00:24:33;;;;;;;1.73;1.05;;;;;;;;;;5002668;28;20033;-79
2022/09/07 00:26:59;;;;;;;1.40;1.00;;;;;;;;;;5002959;28;20369;-79
2022/09/07 00:29:25;;;;;;;3.05;1.08;;;;;;;;;;5008662;28;20638;-80
2022/09/07 00:31:51;;;;;;;4.65;1.10;;;;;;;;;;5005135;28;20042;-80
2022/09/07 00:34:17;;;;;;;0.93;0.82;;;;;;;;;;5004504;28;20037;-79
2022/09/07 00:36:43;;;;;;;1.80;0.98;;;;;;;;;;5007672;28;20026;-79
2022/09/07 00:39:09;;;;;;;1.27;0.90;;;;;;;;;;5007705;28;20040;-79
2022/09/07 00:41:35;;;;;;;0.90;0.90;;;;;;;;;;5002145;28;20491;-79
2022/09/07 00:44:20;;;;;;;0.82;0.73;;;;;;;;;;5008873;28;20660;-79
2022/09/07 00:46:46;;;;;;;1.52;1.25;;;;;;;;;;5006852;28;20022;-79
2022/09/07 00:49:14;;;;;;;1.17;0.82;;;;;;;;;;5008391;28;20025;-79
2022/09/07 00:51:48;;;;;;;1.38;0.85;;;;;;;;;;5005105;28;20038;-79
2022/09/07 00:54:20;;;;;;;1.13;1.00;;;;;;;;;;4998525;28;20084;-79
2022/09/07 00:56:47;;;;;;;3.00;1.10;;;;;;;;;;5005940;28;20481;-79
2022/09/07 00:59:14;;;;;;;3.17;0.85;;;;;;;;;;5007613;28;20188;-79
2022/09/07 01:01:41;;;;;;;2.65;0.73;;;;;;;;;;4999668;28;20492;-79
2022/09/07 01:04:07;;;;;;;2.58;1.10;;;;;;;;;;5004426;28;20022;-79
2022/09/07 01:06:35;;;;;;;1.17;1.02;;;;;;;;;;5005495;28;20053;-79
2022/09/07 01:09:03;;;;;;;1.17;1.02;;;;;;;;;;5003470;28;20027;-79
2022/09/07 01:11:30;;;;;;;7.10;0.75;;;;;;;;;;5000488;28;20756;-79
2022/09/07 01:13:57;;;;;;;0.60;0.60;;;;;;;;;;5002601;28;20519;-79
2022/09/07 01:16:35;;;;;;;2.58;1.25;;;;;;;;;;5004572;28;20041;-81
2022/09/07 01:19:10;;;;;;;1.20;1.00;;;;;;;;;;5007003;28;20037;-77
2022/09/07 01:21:42;;;;;;;1.20;0.85;;;;;;;;;;5005074;28;20034;-78
2022/09/07 01:24:18;;;;;;;1.02;0.75;;;;;;;;;;5005828;28;20030;-80
2022/09/07 01:27:03;;;;;;;1.98;1.00;;;;;;;;;;5006683;28;20486;-81
2022/09/07 01:29:28;;;;;;;5.05;0.90;;;;;;;;;;5007512;28;20398;-78
2022/09/07 01:31:57;;;;;;;1.00;0.90;;;;;;;;;;5000668;28;20022;-79
2022/09/07 01:34:25;;;;;;;2.83;1.02;;;;;;;;;;4997545;28;20030;-80
2022/09/07 01:37:03;;;;;;;1.45;1.08;;;;;;;;;;5006957;28;20125;-78
2022/09/07 01:39:49;;;;;;;3.95;1.20;;;;;;;;;;5007045;28;20121;-78
2022/09/07 01:42:17;;;;;;;1.95;1.20;;;;;;;;;;4965339;28;20129;-79
2022/09/07 01:44:48;;;;;;;1.65;1.00;;;;;;;;;;5002213;28;20052;-79
2022/09/07 01:47:14;;;;;;;1.80;1.17;;;;;;;;;;5004036;28;20590;-79
2022/09/07 01:49:50;;;;;;;1.67;0.95;;;;;;;;;;5001889;28;20042;-80
2022/09/07 01:52:16;;;;;;;1.02;0.77;;;;;;;;;;4990088;28;20038;-79
2022/09/07 01:54:48;;;;;;;1.33;1.02;;;;;;;;;;4999683;28;20037;-79
2022/09/07 01:57:16;;;;;;;3.00;0.95;;;;;;;;;;5006595;28;20490;-79
2022/09/07 01:59:43;;;;;;;1.48;1.10;;;;;;;;;;4993190;28;20089;-79
2022/09/07 02:02:12;;;;;;;1.25;0.80;;;;;;;;;;5001781;28;20056;-79
2022/09/07 02:04:55;;;;;;;1.00;0.90;;;;;;;;;;4999073;28;20400;-79
2022/09/07 02:07:40;;;;;;;2.53;1.00;;;;;;;;;;5003031;28;20030;-79
2022/09/07 02:10:09;;;;;;;1.20;1.10;;;;;;;;;;5002531;28;20044;-78
2022/09/07 02:12:47;;;;;;;2.13;1.10;;;;;;;;;;4999083;28;20118;-80
2022/09/07 02:15:26;;;;;;;1.88;1.00;;;;;;;;;;4999003;28;20037;-78
2022/09/07 02:17:55;;;;;;;1.83;0.82;;;;;;;;;;4994803;28;20034;-79
2022/09/07 02:20:23;;;;;;;1.58;0.90;;;;;;;;;;5006393;28;20040;-78
2022/09/07 02:22:53;;;;;;;1.40;1.00;;;;;;;;;;5002755;28;20042;-79
2022/09/07 02:25:23;;;;;;;1.63;1.10;;;;;;;;;;4999980;28;20046;-78
2022/09/07 02:27:52;;;;;;;0.80;0.80;;;;;;;;;;5006551;28;20084;-78
2022/09/07 02:30:18;;;;;;;1.63;0.75;;;;;;;;;;5005794;28;20064;-79
2022/09/07 02:32:44;;;;;;;0.90;0.90;;;;;;;;;;5006438;28;20461;-79
2022/09/07 02:35:10;;;;;;;1.25;0.85;;;;;;;;;;4995209;28;20030;-79
2022/09/07 02:37:37;;;;;;;0.82;0.70;;;;;;;;;;5005767;28;20040;-79
2022/09/07 02:40:04;;;;;;;1.15;0.95;;;;;;;;;;5005904;28;20034;-78
2022/09/07 02:42:32;;;;;;;2.95;1.45;;;;;;;;;;5005013;28;20048;-78
2022/09/07 02:44:58;;;;;;;2.67;1.20;;;;;;;;;;5003991;28;20742;-79
2022/09/07 02:47:53;;;;;;;1.10;0.95;;;;;;;;;;5003662;28;20037;-79
2022/09/07 02:50:45;;;;;;;2.20;1.10;;;;;;;;;;4934136;28;20567;-79
2022/09/07 02:53:10;;;;;;;;;;;;;;;;;;5008147;28;20080;-79
2022/09/07 02:55:46;;;;;;;2.17;1.00;;;;;;;;;;5000216;28;21043;-79
2022/09/07 02:58:31;;;;;;;1.25;0.98;;;;;;;;;;5005782;28;20029;-79
2022/09/07 03:01:29;;;;;;;2.60;1.17;;;;;;;;;;5003867;28;20052;-79
2022/09/07 03:03:59;;;;;;;1.65;0.95;;;;;;;;;;4965074;28;20042;-78
2022/09/07 03:06:27;;;;;;;3.30;1.33;;;;;;;;;;5006831;28;20017;-80
2022/09/07 03:08:56;;;;;;;1.20;1.10;;;;;;;;;;5010346;28;20508;-79
2022/09/07 03:11:22;;;;;;;2.17;1.02;;;;;;;;;;5008088;28;20600;-78
2022/09/07 03:13:48;;;;;;;1.63;1.00;;;;;;;;;;4995415;28;20229;-78
2022/09/07 03:16:15;;;;;;;1.13;1.02;;;;;;;;;;5007355;28;20041;-81
2022/09/07 03:18:41;;;;;;;1.20;1.10;;;;;;;;;;5008654;28;20038;-78
2022/09/07 03:21:07;;;;;;;1.92;1.10;;;;;;;;;;5009524;28;20458;-79
2022/09/07 03:23:34;;;;;;;2.50;1.25;;;;;;;;;;5007364;28;20030;-78
2022/09/07 03:26:00;;;;;;;3.22;0.98;;;;;;;;;;5002418;28;20029;-81
2022/09/07 03:28:26;;;;;;;1.73;1.45;;;;;;;;;;5008457;28;20044;-78
2022/09/07 03:30:52;;;;;;;2.35;1.20;;;;;;;;;;5001072;28;20802;-80
2022/09/07 03:33:18;;;;;;;2.78;1.00;;;;;;;;;;5008994;28;20526;-81
2022/09/07 03:35:45;;;;;;;2.40;1.05;;;;;;;;;;5007503;28;20026;-80
2022/09/07 03:38:11;;;;;;;1.23;1.00;;;;;;;;;;5007937;28;20030;-78
2022/09/07 03:40:37;;;;;;;1.42;0.95;;;;;;;;;;5008146;28;20148;-78
2022/09/07 03:43:03;;;;;;;2.75;1.27;;;;;;;;;;5000421;28;20377;-80
2022/09/07 03:45:29;;;;;;;1.35;0.95;;;;;;;;;;5005541;28;20408;-80
2022/09/07 03:47:55;;;;;;;1.27;1.08;;;;;;;;;;5006766;28;20018;-78
2022/09/07 03:50:21;;;;;;;2.50;1.10;;;;;;;;;;5010293;28;20424;-81
2022/09/07 03:52:47;;;;;;;2.83;1.10;;;;;;;;;;5003132;28;20057;-80
2022/09/07 03:55:13;;;;;;;1.10;1.00;;;;;;;;;;5000744;28;20041;-81
2022/09/07 03:57:39;;;;;;;1.83;0.85;;;;;;;;;;5003583;28;20042;-81
2022/09/07 04:00:05;;;;;;;2.35;1.48;;;;;;;;;;5003544;28;20029;-81
2022/09/07 04:02:31;;;;;;;1.45;1.15;;;;;;;;;;5001715;28;20508;-79
2022/09/07 04:04:57;;;;;;;1.63;1.00;;;;;;;;;;5004284;28;20034;-84
2022/09/07 04:07:23;;;;;;;2.05;1.23;;;;;;;;;;5006097;28;20492;-79
2022/09/07 04:09:52;;;;;;;2.30;1.10;;;;;;;;;;5003002;28;20029;-79
2022/09/07 04:12:18;;;;;;;2.05;1.35;;;;;;;;;;5002452;28;20030;-80
2022/09/07 04:14:45;;;;;;;1.83;0.98;;;;;;;;;;4999368;28;20362;-80
2022/09/07 04:17:11;;;;;;;1.98;1.20;;;;;;;;;;5003025;28;20034;-80
2022/09/07 04:19:37;;;;;;;2.00;0.98;;;;;;;;;;5003590;28;20075;-82
2022/09/07 04:22:03;;;;;;;6.10;1.10;;;;;;;;;;5001764;28;20424;-85
2022/09/07 04:24:29;;;;;;;1.00;0.85;;;;;;;;;;5003187;28;20044;-84
2022/09/07 04:26:55;;;;;;;1.48;1.17;;;;;;;;;;5005072;28;20030;-83
2022/09/07 04:29:21;;;;;;;1.10;0.90;;;;;;;;;;4996323;28;20396;-82
2022/09/07 04:31:47;;;;;;;1.90;1.08;;;;;;;;;;5002446;28;20022;-82
2022/09/07 04:34:13;;;;;;;1.10;1.00;;;;;;;;;;5004161;28;20392;-81
2022/09/07 04:36:39;;;;;;;2.35;1.08;;;;;;;;;;5000600;28;20478;-81
2022/09/07 04:39:05;;;;;;;1.77;1.10;;;;;;;;;;5003880;28;20030;-80
2022/09/07 04:41:33;;;;;;;1.48;1.25;;;;;;;;;;5000113;28;20037;-83
2022/09/07 04:43:59;;;;;;;2.85;1.23;;;;;;;;;;5000825;28;20404;-82
2022/09/07 04:46:27;;;;;;;1.75;1.30;;;;;;;;;;5001682;28;20026;-88
2022/09/07 04:49:04;;;;;;;1.52;1.02;;;;;;;;;;5000957;28;20026;-87
2022/09/07 04:51:31;;;;;;;1.38;1.00;;;;;;;;;;4997433;28;20034;-88
2022/09/07 04:53:58;;;;;;;2.30;1.23;;;;;;;;;;5003305;28;20515;-87
2022/09/07 04:56:24;;;;;;;2.65;1.83;;;;;;;;;;5002584;28;20237;-86
2022/09/07 04:58:50;;;;;;;3.80;1.67;;;;;;;;;;4999753;28;20108;-89
2022/09/07 05:01:17;;;;;;;1.42;1.10;;;;;;;;;;5004975;28;20507;-90
2022/09/07 05:03:46;;;;;;;2.63;1.60;;;;;;;;;;5004689;28;20038;-86
2022/09/07 05:06:13;;;;;;;1.27;1.17;;;;;;;;;;5002417;28;20148;-88
2022/09/07 05:08:43;;;;;;;2.08;1.20;;;;;;;;;;5008507;28;20040;-89
2022/09/07 05:11:10;;;;;;;3.15;1.48;;;;;;;;;;5006442;28;20041;-92
2022/09/07 05:13:36;;;;;;;3.33;1.50;;;;;;;;;;5003424;28;20030;-90
2022/09/07 05:16:10;;;;;;;1.88;1.10;;;;;;;;;;5007147;28;20032;-89
2022/09/07 05:18:36;;;;;;;2.42;1.27;;;;;;;;;;5005937;28;20049;-88
2022/09/07 05:21:12;;;;;;;1.75;1.23;;;;;;;;;;5005429;28;20041;-89
2022/09/07 05:23:42;;;;;;;2.17;1.40;;;;;;;;;;5004798;28;20447;-88
2022/09/07 05:26:08;;;;;;;1.50;1.10;;;;;;;;;;5003047;28;20049;-87
2022/09/07 05:28:34;;;;;;;4.07;1.45;;;;;;;;;;5007738;28;20038;-85
2022/09/07 05:31:15;;;;;;;4.00;2.00;;;;;;;;;;5006500;28;20056;-88
2022/09/07 05:33:45;;;;;;;2.88;1.48;;;;;;;;;;5003632;28;20030;-87
2022/09/07 05:36:11;;;;;;;1.50;1.38;;;;;;;;;;5005724;28;20041;-87
2022/09/07 05:38:37;;;;;;;2.38;1.33;;;;;;;;;;5008165;28;20365;-87
2022/09/07 05:41:10;;;;;;;6.53;1.52;;;;;;;;;;5007582;28;20118;-90
2022/09/07 05:43:36;;;;;;;1.98;1.30;;;;;;;;;;5005528;28;20044;-86
2022/09/07 05:46:02;;;;;;;2.35;1.30;;;;;;;;;;5008800;28;20094;-89
2022/09/07 05:48:28;;;;;;;2.17;1.35;;;;;;;;;;5003462;28;20022;-87
2022/09/07 05:50:54;;;;;;;3.58;1.48;;;;;;;;;;5005596;28;20076;-90
2022/09/07 05:53:21;;;;;;;3.00;1.42;;;;;;;;;;5003483;28;20104;-87
2022/09/07 05:55:49;;;;;;;1.85;1.45;;;;;;;;;;5007057;28;20036;-90
2022/09/07 05:58:15;;;;;;;2.25;1.50;;;;;;;;;;5004096;28;20392;-90
2022/09/07 06:00:41;;;;;;;1.90;1.33;;;;;;;;;;4999798;28;20030;-87
2022/09/07 06:03:07;;;;;;;2.33;1.38;;;;;;;;;;5001226;28;20032;-88
2022/09/07 06:05:33;;;;;;;1.65;1.35;;;;;;;;;;4997641;28;20050;-89
2022/09/07 06:07:59;;;;;;;4.15;1.15;;;;;;;;;;5003914;28;20588;-87
2022/09/07 06:10:25;;;;;;;2.05;1.25;;;;;;;;;;5003791;28;20448;-87
2022/09/07 06:12:52;;;;;;;7.63;1.95;;;;;;;;;;5007434;28;20038;-90
2022/09/07 06:15:18;;;;;;;3.33;1.40;;;;;;;;;;4994671;28;20101;-88
2022/09/07 06:17:44;;;;;;;2.08;1.48;;;;;;;;;;4998054;28;20041;-90
2022/09/07 06:20:10;;;;;;;1.90;1.20;;;;;;;;;;5000821;28;20093;-89
2022/09/07 06:22:36;;;;;;;2.65;1.70;;;;;;;;;;4998650;28;20092;-80
2022/09/07 06:25:03;;;;;;;2.97;1.58;;;;;;;;;;4998864;28;20124;-82
2022/09/07 06:27:29;;;;;;;1.92;1.17;;;;;;;;;;4997039;28;20037;-87
2022/09/07 06:29:55;;;;;;;3.83;1.35;;;;;;;;;;4997115;28;20042;-88
2022/09/07 06:32:21;;;;;;;3.58;1.92;;;;;;;;;;5004802;28;20026;-83
2022/09/07 06:34:47;;;;;;;1.52;1.20;;;;;;;;;;5000624;28;20368;-77
2022/09/07 06:37:13;;;;;;;2.70;1.50;;;;;;;;;;5004753;28;20152;-82
2022/09/07 06:39:39;;;;;;;2.35;1.55;;;;;;;;;;5001970;28;20046;-79
2022/09/07 06:42:05;;;;;;;1.55;1.40;;;;;;;;;;5003757;28;20026;-82
2022/09/07 06:44:31;;;;;;;2.38;1.77;;;;;;;;;;4996326;28;20070;-81
2022/09/07 06:46:57;;;;;;;3.65;2.00;;;;;;;;;;5003237;28;20038;-83
2022/09/07 06:49:24;;;;;;;2.03;1.35;;;;;;;;;;5012159;28;20349;-79
2022/09/07 06:51:50;;;;;;;3.25;1.52;;;;;;;;;;5001455;28;20068;-78
2022/09/07 06:54:16;;;;;;;2.15;1.35;;;;;;;;;;5007713;28;20496;-76
2022/09/07 06:56:42;;;;;;;3.90;1.77;;;;;;;;;;5006434;28;20044;-75
2022/09/07 06:59:08;;;;;;;2.15;1.60;;;;;;;;;;4992090;28;20485;-75
2022/09/07 07:01:34;;;;;;;5.80;2.28;;;;;;;;;;5003042;28;20029;-75
2022/09/07 07:04:00;;;;;;;4.25;1.60;;;;;;;;;;5005910;28;20092;-75
2022/09/07 07:06:36;;;;;;;1.88;1.38;;;;;;;;;;5010090;28;20029;-83
2022/09/07 07:09:03;;;;;;;3.42;1.73;;;;;;;;;;4999374;28;20513;-75
2022/09/07 07:11:30;;;;;;;4.07;1.73;;;;;;;;;;5009591;28;20104;-76
2022/09/07 07:13:56;;;;;;;4.15;1.77;;;;;;;;;;5006826;28;20033;-77
2022/09/07 07:16:23;;;;;;;3.50;1.83;;;;;;;;;;5010422;28;20034;-77
2022/09/07 07:18:51;;;;;;;1.83;1.40;;;;;;;;;;5005490;28;20713;-75
2022/09/07 07:21:17;;;;;;;4.05;1.60;;;;;;;;;;5010794;28;20030;-75
2022/09/07 07:23:43;;;;;;;3.55;1.70;;;;;;;;;;5009719;28;20343;-79
2022/09/07 07:26:11;;;;;;;1.73;1.20;;;;;;;;;;5009306;28;20116;-80
2022/09/07 07:28:37;;;;;;;2.90;1.90;;;;;;;;;;5008050;28;20033;-82
2022/09/07 07:31:04;;;;;;;2.30;1.70;;;;;;;;;;5009702;28;20080;-75
2022/09/07 07:33:31;;;;;;;2.92;1.60;;;;;;;;;;5005826;28;20030;-79
2022/09/07 07:36:29;;;;;;;2.65;1.75;;;;;;;;;;5007137;28;20033;-74
2022/09/07 07:39:06;;;;;;;5.85;2.08;;;;;;;;;;4958578;28;20456;-75
2022/09/07 07:41:32;;;;;;;3.10;2.08;;;;;;;;;;5009688;28;20484;-75
2022/09/07 07:43:59;;;;;;;12.02;1.88;;;;;;;;;;5007942;28;20050;-76
2022/09/07 07:46:25;;;;;;;2.60;1.63;;;;;;;;;;5009076;28;20014;-75
2022/09/07 07:48:51;;;;;;;2.45;1.60;;;;;;;;;;5006913;28;20030;-73
2022/09/07 07:51:17;;;;;;;2.60;2.00;;;;;;;;;;5008565;28;20465;-76
2022/09/07 07:53:43;;;;;;;2.83;1.60;;;;;;;;;;5010112;28;20033;-74
2022/09/07 07:56:10;;;;;;;2.90;1.92;;;;;;;;;;5005157;28;20030;-75
2022/09/07 07:58:37;;;;;;;3.42;2.08;;;;;;;;;;5009924;28;20021;-74
2022/09/07 08:01:07;;;;;;;4.72;1.85;;;;;;;;;;5005481;28;20037;-75
2022/09/07 08:03:37;;;;;;;3.08;1.90;;;;;;;;;;5009651;28;20233;-75
2022/09/07 08:06:10;;;;;;;2.72;1.80;;;;;;;;;;5002950;28;20038;-75
2022/09/07 08:08:36;;;;;;;3.97;1.63;;;;;;;;;;5003553;28;20054;-75
2022/09/07 08:11:07;;;;;;;3.45;1.73;;;;;;;;;;5009368;28;20445;-75
2022/09/07 08:13:37;;;;;;;3.60;2.20;;;;;;;;;;5010060;28;20350;-75
2022/09/07 08:16:04;;;;;;;3.40;1.85;;;;;;;;;;5005224;28;20029;-75
2022/09/07 08:18:31;;;;;;;4.45;1.90;;;;;;;;;;5004664;28;20546;-75
2022/09/07 08:21:01;;;;;;;2.78;1.83;;;;;;;;;;5000549;28;20038;-75
2022/09/07 08:23:27;;;;;;;2.97;1.73;;;;;;;;;;5009886;28;20104;-73
2022/09/07 08:25:54;;;;;;;4.05;2.10;;;;;;;;;;5007796;28;20036;-76
2022/09/07 08:28:22;;;;;;;3.30;2.40;;;;;;;;;;5001453;28;20493;-73
2022/09/07 08:30:48;;;;;;;2.78;1.90;;;;;;;;;;4997285;28;20129;-76
2022/09/07 08:33:14;;;;;;;6.38;2.17;;;;;;;;;;5008770;28;20392;-76
2022/09/07 08:35:40;;;;;;;5.15;2.10;;;;;;;;;;5007688;28;20030;-77
2022/09/07 08:38:06;;;;;;;4.13;2.35;;;;;;;;;;5010149;28;20020;-77
2022/09/07 08:40:35;;;;;;;3.13;2.10;;;;;;;;;;5006410;28;20026;-76
2022/09/07 08:43:09;;;;;;;1.88;1.63;;;;;;;;;;5001036;28;20033;-76
2022/09/07 08:45:39;;;;;;;2.13;1.77;;;;;;;;;;4989939;28;20375;-78
2022/09/07 08:48:05;;;;;;;3.45;2.20;;;;;;;;;;4990939;28;20031;-75
2022/09/07 08:50:33;;;;;;;3.45;2.08;;;;;;;;;;4988958;28;20034;-75
2022/09/07 08:53:07;;;;;;;4.07;2.80;;;;;;;;;;5000819;28;20366;-76
2022/09/07 08:55:42;;;;;;;4.05;2.72;;;;;;;;;;5008169;28;20102;-75
2022/09/07 08:58:17;;;;;;;6.28;2.25;;;;;;;;;;5008962;28;20034;-75
2022/09/07 09:00:43;;;;;;;3.30;2.10;;;;;;;;;;4993403;28;20436;-76
2022/09/07 09:03:15;;;;;;;4.85;2.38;;;;;;;;;;5005704;28;20041;-75
2022/09/07 09:06:05;;;;;;;5.18;2.53;;;;;;;;;;5007631;28;20036;-76
2022/09/07 09:08:50;;;;;;;2.92;2.05;;;;;;;;;;4998930;28;20034;-77
2022/09/07 09:11:20;;;;;;;5.82;2.47;;;;;;;;;;4996667;28;20445;-75
2022/09/07 09:14:01;;;;;;;5.00;2.30;;;;;;;;;;4992383;28;20026;-75
2022/09/07 09:16:45;;;;;;;3.85;2.38;;;;;;;;;;5003031;28;20053;-79
2022/09/07 09:19:29;;;;;;;2.67;2.13;;;;;;;;;;5007224;28;20095;-75
2022/09/07 09:22:15;;;;;;;3.45;2.10;;;;;;;;;;5006707;28;20022;-76
2022/09/07 09:24:44;;;;;;;4.15;2.10;;;;;;;;;;4988756;28;20040;-75
2022/09/07 09:27:10;;;;;;;4.97;2.97;;;;;;;;;;5002240;28;20022;-76
2022/09/07 09:29:36;;;;;;;3.53;2.53;;;;;;;;;;4996313;28;20061;-79
2022/09/07 09:32:21;;;;;;;5.82;3.20;;;;;;;;;;4997222;28;20038;-78
2022/09/07 09:34:59;;;;;;;4.25;2.10;;;;;;;;;;4988671;28;20049;-79
2022/09/07 09:37:36;;;;;;;5.18;2.58;;;;;;;;;;5003626;28;20109;-82
2022/09/07 09:40:02;;;;;;;4.03;2.58;;;;;;;;;;5008491;28;20030;-81
2022/09/07 09:42:29;;;;;;;4.10;2.97;;;;;;;;;;4996158;28;20378;-80
2022/09/07 09:45:01;;;;;;;3.55;2.17;;;;;;;;;;4988229;28;20030;-82
2022/09/07 09:47:31;;;;;;;3.05;2.30;;;;;;;;;;5001478;28;20152;-81
2022/09/07 09:49:59;;;;;;;3.17;2.20;;;;;;;;;;4991524;28;20030;-81
2022/09/07 09:52:25;;;;;;;4.57;2.78;;;;;;;;;;4988985;28;20436;-80
2022/09/07 09:54:55;;;;;;;4.40;2.85;;;;;;;;;;4998260;28;20034;-77
2022/09/07 09:57:41;;;;;;;4.53;3.00;;;;;;;;;;5006940;28;20026;-81
2022/09/07 10:00:14;;;;;;;6.60;2.50;;;;;;;;;;4984158;28;20041;-81
2022/09/07 10:02:40;;;;;;;3.90;2.58;;;;;;;;;;5008028;28;20030;-81
2022/09/07 10:05:25;;;;;;;4.38;2.97;;;;;;;;;;5006028;28;20095;-82
2022/09/07 10:07:52;;;;;;;3.53;2.38;;;;;;;;;;5006737;28;20034;-82
2022/09/07 10:10:18;;;;;;;5.43;3.40;;;;;;;;;;5003742;28;20080;-80
2022/09/07 10:12:45;;;;;;;3.25;2.58;;;;;;;;;;5005649;28;20428;-81
2022/09/07 10:15:34;;;;;;;3.08;2.03;;;;;;;;;;5006484;28;20127;-80
2022/09/07 10:18:00;;;;;;;3.50;2.45;;;;;;;;;;5006328;28;20030;-81
2022/09/07 10:20:34;;;;;;;3.90;2.90;;;;;;;;;;5005835;28;20057;-83
2022/09/07 10:23:01;;;;;;;5.63;2.13;;;;;;;;;;5005923;28;20155;-82
2022/09/07 10:25:35;;;;;;;3.55;2.42;;;;;;;;;;5006037;28;20396;-82
2022/09/07 10:28:04;;;;;;;3.53;2.72;;;;;;;;;;5004845;28;20040;-83
2022/09/07 10:30:42;;;;;;;2.95;2.50;;;;;;;;;;4988986;28;20043;-85
2022/09/07 10:33:16;;;;;;;4.72;2.50;;;;;;;;;;4996832;28;20432;-82
2022/09/07 10:35:53;;;;;;;3.38;2.72;;;;;;;;;;4998730;28;20026;-80
2022/09/07 10:38:21;;;;;;;3.58;2.95;;;;;;;;;;5004111;28;20046;-79
2022/09/07 10:40:52;;;;;;;2.97;2.55;;;;;;;;;;4988552;28;20030;-81
2022/09/07 10:43:18;;;;;;;;;;;;;;;;;;4994494;28;20026;-81
2022/09/07 10:45:51;;;;;;;3.97;2.90;;;;;;;;;;4994580;28;20008;-80
2022/09/07 10:48:22;;;;;;;4.25;2.55;;;;;;;;;;5007488;28;20025;-80
2022/09/07 10:50:55;;;;;;;4.65;3.03;;;;;;;;;;5006554;28;20034;-82
2022/09/07 10:53:24;;;;;;;4.50;3.33;;;;;;;;;;4989219;28;20477;-79
2022/09/07 10:55:56;;;;;;;6.05;2.72;;;;;;;;;;5000533;28;20036;-79
2022/09/07 10:58:25;;;;;;;3.20;2.33;;;;;;;;;;5001423;28;20086;-78
2022/09/07 11:01:09;;;;;;;4.43;3.10;;;;;;;;;;5006516;28;20034;-80
2022/09/07 11:03:38;;;;;;;3.85;2.70;;;;;;;;;;5005096;28;20022;-78
2022/09/07 11:06:23;;;;;;;4.32;2.63;;;;;;;;;;4998666;28;20089;-80
2022/09/07 11:08:59;;;;;;;4.18;2.55;;;;;;;;;;4987807;28;20034;-79
2022/09/07 11:11:27;;;;;;;4.35;2.65;;;;;;;;;;4997665;28;20034;-80
2022/09/07 11:13:56;;;;;;;3.55;2.70;;;;;;;;;;5004072;28;20037;-80
2022/09/07 11:16:24;;;;;;;3.55;2.90;;;;;;;;;;4996350;28;20319;-80
2022/09/07 11:18:59;;;;;;;8.88;3.10;;;;;;;;;;5006919;28;20058;-79
2022/09/07 11:21:34;;;;;;;5.40;2.70;;;;;;;;;;5005866;28;20800;-79
2022/09/07 11:24:08;;;;;;;4.88;3.30;;;;;;;;;;4993352;28;20034;-79
2022/09/07 11:26:37;;;;;;;3.83;2.95;;;;;;;;;;5003804;28;20645;-78
2022/09/07 11:29:15;;;;;;;3.78;2.80;;;;;;;;;;5007218;28;20081;-80
2022/09/07 11:31:43;;;;;;;3.40;2.58;;;;;;;;;;5007909;28;20117;-78
2022/09/07 11:34:13;;;;;;;5.93;3.47;;;;;;;;;;4991360;28;20116;-79
2022/09/07 11:36:45;;;;;;;4.53;2.80;;;;;;;;;;5005421;28;20132;-78
2022/09/07 11:39:14;;;;;;;4.30;3.13;;;;;;;;;;5011154;28;20295;-78
2022/09/07 11:41:41;;;;;;;4.50;2.75;;;;;;;;;;5006352;28;20042;-78
2022/09/07 11:44:14;;;;;;;4.68;3.42;;;;;;;;;;4991670;28;20389;-79
2022/09/07 11:46:47;;;;;;;4.78;3.15;;;;;;;;;;5007002;28;20080;-78
2022/09/07 11:49:16;;;;;;;5.53;3.03;;;;;;;;;;5009957;28;20489;-79
2022/09/07 11:51:54;;;;;;;3.30;2.85;;;;;;;;;;5008209;28;20083;-78
2022/09/07 11:54:38;;;;;;;5.10;3.42;;;;;;;;;;5010801;28;20036;-79
2022/09/07 11:57:04;;;;;;;4.88;2.97;;;;;;;;;;5005714;28;20117;-79
2022/09/07 11:59:36;;;;;;;5.40;3.08;;;;;;;;;;5010395;28;20377;-78
2022/09/07 12:02:25;;;;;;;5.50;3.30;;;;;;;;;;5008480;28;20045;-78
2022/09/07 12:05:02;;;;;;;4.60;3.00;;;;;;;;;;5007851;28;20044;-79
2022/09/07 12:07:50;;;;;;;4.05;3.08;;;;;;;;;;5003248;28;20053;-79
2022/09/07 12:10:28;;;;;;;7.82;3.35;;;;;;;;;;4999972;28;20087;-79
2022/09/07 12:13:22;;;;;;;6.65;3.10;;;;;;;;;;5002369;28;20018;-76
2022/09/07 12:15:54;;;;;;;4.10;3.38;;;;;;;;;;5005517;28;20040;-81
2022/09/07 12:18:23;;;;;;;3.88;3.05;;;;;;;;;;4997449;28;20093;-78
2022/09/07 12:20:49;;;;;;;4.03;2.92;;;;;;;;;;5002429;28;20042;-77
2022/09/07 12:23:15;;;;;;;4.35;3.13;;;;;;;;;;5009864;28;20105;-77
2022/09/07 12:25:42;;;;;;;6.25;3.67;;;;;;;;;;4999196;28;20046;-78
2022/09/07 12:28:17;;;;;;;5.32;3.35;;;;;;;;;;4998685;28;20041;-76
2022/09/07 12:30:54;;;;;;;4.40;2.88;;;;;;;;;;4990604;28;20061;-78
2022/09/07 12:33:24;;;;;;;3.70;3.15;;;;;;;;;;5003383;28;20061;-80
2022/09/07 12:35:56;;;;;;;3.83;3.00;;;;;;;;;;5001824;28;20034;-79
2022/09/07 12:38:34;;;;;;;4.50;3.45;;;;;;;;;;5008129;28;20584;-83
2022/09/07 12:41:01;;;;;;;5.32;3.53;;;;;;;;;;5007032;28;20030;-80
2022/09/07 12:43:27;;;;;;;4.60;3.22;;;;;;;;;;5008858;28;20045;-81
2022/09/07 12:45:55;;;;;;;4.00;3.15;;;;;;;;;;5006686;28;20036;-81
2022/09/07 12:48:43;;;;;;;3.40;2.95;;;;;;;;;;5001665;28;20025;-87
2022/09/07 12:51:11;;;;;;;4.18;3.40;;;;;;;;;;5003126;28;20030;-77
2022/09/07 12:53:53;;;;;;;3.63;3.05;;;;;;;;;;4996551;28;20033;-79
2022/09/07 12:56:19;;;;;;;;;;;;;;;;;;5002117;28;20030;-83
2022/09/07 12:58:44;;;;;;;4.10;3.17;;;;;;;;;;5006324;28;19910;-82
2022/09/07 13:01:24;;;;;;;4.03;3.17;;;;;;;;;;5001632;28;20038;-82
2022/09/07 13:03:53;;;;;;;4.03;3.10;;;;;;;;;;5002542;28;20037;-80
2022/09/07 13:06:31;;;;;;;3.97;2.78;;;;;;;;;;5003251;28;20029;-88
2022/09/07 13:09:00;;;;;;;7.45;3.90;;;;;;;;;;5001415;28;20034;-80
2022/09/07 13:11:30;;;;;;;6.88;3.83;;;;;;;;;;5006207;28;20030;-79
2022/09/07 13:13:58;;;;;;;3.50;2.92;;;;;;;;;;4997859;28;20559;-81
2022/09/07 13:16:32;;;;;;;4.97;3.25;;;;;;;;;;5002520;28;20099;-75
2022/09/07 13:19:02;;;;;;;4.13;2.90;;;;;;;;;;5004128;28;20048;-76
2022/09/07 13:21:28;;;;;;;4.20;3.15;;;;;;;;;;4984180;28;20030;-75
2022/09/07 13:24:23;;;;;;;5.13;3.72;;;;;;;;;;5007242;28;20060;-75
2022/09/07 13:26:58;;;;;;;4.97;3.47;;;;;;;;;;4998189;28;20026;-76
2022/09/07 13:29:44;;;;;;;10.57;3.30;;;;;;;;;;4996768;28;20026;-77
2022/09/07 13:32:30;;;;;;;5.70;3.40;;;;;;;;;;4961569;28;20038;-76
2022/09/07 13:35:03;;;;;;;5.45;3.35;;;;;;;;;;5004200;28;20623;-76
2022/09/07 13:37:31;;;;;;;3.92;3.33;;;;;;;;;;5000688;28;20034;-75
2022/09/07 13:39:58;;;;;;;4.85;3.03;;;;;;;;;;5002432;28;20037;-75
2022/09/07 13:42:25;;;;;;;4.22;3.25;;;;;;;;;;5007515;28;20104;-76
2022/09/07 13:44:53;;;;;;;5.45;3.67;;;;;;;;;;4997284;28;20030;-75
2022/09/07 13:47:26;;;;;;;3.72;3.10;;;;;;;;;;4998679;28;20083;-78
2022/09/07 13:50:03;;;;;;;4.70;3.20;;;34.50;48.40;;;;;;4995945;28;20049;-82
2022/09/07 13:52:49;;;;;;;5.28;3.10;;;;;;;;;;5006231;28;20022;-78
2022/09/07 13:55:24;;;;;;;4.15;2.75;;;;;;;;;;4999853;28;20121;-85
2022/09/07 13:58:08;;;;;;;3.97;3.40;;;;;;;;;;4998375;28;20114;-83
2022/09/07 14:00:34;;;;;;;3.70;3.17;;;;;;;;;;5002950;28;20034;-84
2022/09/07 14:03:04;;;;;;;4.88;3.42;;;;;;;;;;5002146;28;20033;-79
2022/09/07 14:05:32;;;;;;;4.05;3.33;;;;;;;;;;5002933;28;20042;-81
2022/09/07 14:07:58;;;;;;;5.85;3.25;;;;;;;;;;5004183;28;20025;-75
2022/09/07 14:10:25;;;;;;;5.38;3.72;;;;;;;;;;5003586;28;20473;-77
2022/09/07 14:12:52;;;;;;;4.13;3.13;;;;;;;;;;4999284;28;20030;-76
2022/09/07 14:15:23;;;;;;;4.00;3.10;;;;;;;;;;5000367;28;20025;-76
2022/09/07 14:17:52;;;;;;;5.15;3.75;;;;;;;;;;5000435;28;20052;-76
2022/09/07 14:20:19;;;;;;;4.07;3.38;;;;;;;;;;4999018;28;20029;-76
2022/09/07 14:22:45;;;;;;;4.47;3.47;;;;;;;;;;5007933;28;20041;-76
2022/09/07 14:25:16;;;;;;;3.88;3.25;;;;;;;;;;5006891;28;20117;-76
2022/09/07 14:27:43;;;;;;;4.53;3.38;;;;;;;;;;5001249;28;20081;-76
2022/09/07 14:30:14;;;;;;;5.47;3.55;;;;;;;;;;4994237;28;20042;-75
2022/09/07 14:32:40;;;;;;;4.97;3.63;;;;;;;;;;5008098;28;20132;-76
2022/09/07 14:35:17;;;;;;;6.85;3.30;;;;;;;;;;5004264;28;20125;-76
2022/09/07 14:37:43;;;;;;;4.72;3.15;;;;;;;;;;5005536;28;20026;-76
2022/09/07 14:40:18;;;;;;;3.67;3.22;;;;;;;;;;5000329;28;20040;-77
2022/09/07 14:42:44;;;;;;;4.88;2.92;;;;;;;;;;4988902;28;20027;-76
2022/09/07 14:45:31;;;;;;;3.95;3.05;;;;;;;;;;5007080;28;20040;-76
2022/09/07 14:47:57;;;;;;;4.07;3.22;;;;;;;;;;4999590;28;20117;-76
2022/09/07 14:50:25;;;;;;;4.82;3.45;;;;;;;;;;4995365;28;20030;-76
2022/09/07 14:52:53;;;;;;;4.78;3.53;;;;;;;;;;5003660;28;20052;-75
2022/09/07 14:55:30;;;;;;;5.05;3.72;;;;;;;;;;4999866;28;20079;-74
2022/09/07 14:58:14;;;;;;;5.38;3.58;;;;;;;;;;4993805;28;20393;-74
2022/09/07 15:00:41;;;;;;;4.75;3.72;;;;;;;;;;5005494;28;20026;-75